createdAt,value
2018-08-13T00:00:04.735Z,20.38
2018-08-13T00:01:04.756Z,20.42
2018-08-13T00:02:04.785Z,20.40
2018-08-13T00:03:04.807Z,20.48
2018-08-13T00:04:04.835Z,20.50
2018-08-13T00:05:04.860Z,20.41
2018-08-13T00:06:04.884Z,20.37
2018-08-13T00:07:04.906Z,20.40
2018-08-13T00:08:04.936Z,20.44
2018-08-13T00:09:05.002Z,20.33
2018-08-13T00:10:04.984Z,20.40
2018-08-13T00:11:05.013Z,20.37
2018-08-13T00:12:05.033Z,20.33
2018-08-13T00:13:05.058Z,20.37
2018-08-13T00:14:05.087Z,20.35
2018-08-13T00:15:05.113Z,20.40
2018-08-13T00:16:05.136Z,20.34
2018-08-13T00:17:05.157Z,20.41
2018-08-13T00:18:05.184Z,20.50
2018-08-13T00:19:05.204Z,20.37
2018-08-13T00:20:05.235Z,20.42
2018-08-13T00:21:05.255Z,20.42
2018-08-13T00:22:05.284Z,20.46
2018-08-13T00:23:05.309Z,20.46
2018-08-13T00:24:05.333Z,20.40
2018-08-13T00:25:05.362Z,20.33
2018-08-13T00:26:05.382Z,20.41
2018-08-13T00:27:05.406Z,20.35
2018-08-13T00:28:05.436Z,20.38
2018-08-13T00:29:05.457Z,20.41
2018-08-13T00:30:05.483Z,20.37
2018-08-13T00:31:05.502Z,20.41
2018-08-13T00:32:05.538Z,20.31
2018-08-13T00:33:05.560Z,20.31
2018-08-13T00:34:05.583Z,20.26
2018-08-13T00:35:05.603Z,20.26
2018-08-13T00:36:05.628Z,20.34
2018-08-13T00:37:05.660Z,20.35
2018-08-13T00:38:05.686Z,20.30
2018-08-13T00:39:05.703Z,20.35
2018-08-13T00:40:05.730Z,20.30
2018-08-13T00:41:05.752Z,20.34
2018-08-13T00:42:05.784Z,20.26
2018-08-13T00:43:05.807Z,20.23
2018-08-13T00:44:05.826Z,20.27
2018-08-13T00:45:05.854Z,20.30
2018-08-13T00:46:05.884Z,20.23
2018-08-13T00:47:05.902Z,20.30
2018-08-13T00:48:05.930Z,20.26
2018-08-13T00:49:05.952Z,20.20
2018-08-13T00:50:05.984Z,20.23
2018-08-13T00:51:06.009Z,20.16
2018-08-13T00:52:06.035Z,20.20
2018-08-13T00:53:06.052Z,20.19
2018-08-13T00:54:06.084Z,20.19
2018-08-13T00:55:06.105Z,20.13
2018-08-13T00:56:06.131Z,20.20
2018-08-13T00:57:06.158Z,20.16
2018-08-13T00:58:06.177Z,20.17
2018-08-13T00:59:06.202Z,20.15
2018-08-13T01:00:06.230Z,20.12
2018-08-13T01:01:06.254Z,20.16
2018-08-13T01:02:06.284Z,20.25
2018-08-13T01:03:06.305Z,20.19
2018-08-13T01:04:06.332Z,20.12
2018-08-13T01:05:06.368Z,20.17
2018-08-13T01:06:06.377Z,20.19
2018-08-13T01:07:06.400Z,20.13
2018-08-13T01:08:06.427Z,20.16
2018-08-13T01:09:06.457Z,20.15
2018-08-13T01:10:06.480Z,20.22
2018-08-13T01:11:06.500Z,20.20
2018-08-13T01:12:06.532Z,20.22
2018-08-13T01:13:06.551Z,20.15
2018-08-13T01:14:06.574Z,20.16
2018-08-13T01:15:06.602Z,20.22
2018-08-13T01:16:06.626Z,20.12
2018-08-13T01:17:06.650Z,20.15
2018-08-13T01:18:06.680Z,20.13
2018-08-13T01:19:06.702Z,20.07
2018-08-13T01:20:06.726Z,20.10
2018-08-13T01:21:06.758Z,20.07
2018-08-13T01:22:06.777Z,20.13
2018-08-13T01:23:06.800Z,20.08
2018-08-13T01:24:06.830Z,20.12
2018-08-13T01:25:06.852Z,20.08
2018-08-13T01:26:06.872Z,20.12
2018-08-13T01:27:06.902Z,20.10
2018-08-13T01:28:06.923Z,20.08
2018-08-13T01:29:06.950Z,20.10
2018-08-13T01:30:06.974Z,20.12
2018-08-13T01:31:06.999Z,20.07
2018-08-13T01:32:07.024Z,20.10
2018-08-13T01:33:07.052Z,20.05
2018-08-13T01:34:07.070Z,20.07
2018-08-13T01:35:07.102Z,20.07
2018-08-13T01:36:07.126Z,20.07
2018-08-13T01:37:07.151Z,20.10
2018-08-13T01:38:07.174Z,20.10
2018-08-13T01:39:07.203Z,20.12
2018-08-13T01:40:07.223Z,20.10
2018-08-13T01:41:07.248Z,20.07
2018-08-13T01:42:07.272Z,20.10
2018-08-13T01:43:07.297Z,20.10
2018-08-13T01:44:07.322Z,20.12
2018-08-13T01:45:07.345Z,20.12
2018-08-13T01:46:07.373Z,20.08
2018-08-13T01:47:07.394Z,20.07
2018-08-13T01:48:07.426Z,20.10
2018-08-13T01:49:07.444Z,20.15
2018-08-13T01:50:07.474Z,20.08
2018-08-13T01:51:07.499Z,20.13
2018-08-13T01:52:07.520Z,20.10
2018-08-13T01:53:07.545Z,20.13
2018-08-13T01:54:07.572Z,20.13
2018-08-13T01:55:07.600Z,20.08
2018-08-13T01:56:07.617Z,20.10
2018-08-13T01:57:07.640Z,20.12
2018-08-13T01:58:07.671Z,20.19
2018-08-13T01:59:07.713Z,20.08
2018-08-13T02:00:07.716Z,20.16
2018-08-13T02:01:07.740Z,20.13
2018-08-13T02:02:07.766Z,20.13
2018-08-13T02:03:07.793Z,20.17
2018-08-13T02:04:07.816Z,20.12
2018-08-13T02:05:07.840Z,20.16
2018-08-13T02:06:07.865Z,20.17
2018-08-13T02:07:07.892Z,20.17
2018-08-13T02:08:07.916Z,20.19
2018-08-13T02:09:07.943Z,20.12
2018-08-13T02:10:07.970Z,20.17
2018-08-13T02:11:07.989Z,20.20
2018-08-13T02:12:08.019Z,20.12
2018-08-13T02:13:08.037Z,20.15
2018-08-13T02:14:08.061Z,20.20
2018-08-13T02:15:08.085Z,20.13
2018-08-13T02:16:08.111Z,20.19
2018-08-13T02:17:08.140Z,20.16
2018-08-13T02:18:08.164Z,20.15
2018-08-13T02:19:08.194Z,20.15
2018-08-13T02:20:08.210Z,20.12
2018-08-13T02:21:08.243Z,20.12
2018-08-13T02:22:08.262Z,20.15
2018-08-13T02:23:08.289Z,20.07
2018-08-13T02:24:08.310Z,20.10
2018-08-13T02:25:08.339Z,20.08
2018-08-13T02:26:08.363Z,20.10
2018-08-13T02:27:08.386Z,20.12
2018-08-13T02:28:08.411Z,20.05
2018-08-13T02:29:08.430Z,20.15
2018-08-13T02:30:08.458Z,20.15
2018-08-13T02:31:08.483Z,20.07
2018-08-13T02:32:08.514Z,20.00
2018-08-13T02:33:08.532Z,19.98
2018-08-13T02:34:08.563Z,20.05
2018-08-13T02:35:08.580Z,20.01
2018-08-13T02:36:08.611Z,20.07
2018-08-13T02:37:08.634Z,20.08
2018-08-13T02:38:08.659Z,20.05
2018-08-13T02:39:08.768Z,20.04
2018-08-13T02:40:08.702Z,19.98
2018-08-13T02:41:08.731Z,20.00
2018-08-13T02:42:08.759Z,20.07
2018-08-13T02:43:08.784Z,20.02
2018-08-13T02:44:08.808Z,20.05
2018-08-13T02:45:08.832Z,20.02
2018-08-13T02:46:08.853Z,19.95
2018-08-13T02:47:08.881Z,19.95
2018-08-13T02:48:08.903Z,19.90
2018-08-13T02:49:08.932Z,19.98
2018-08-13T02:50:08.953Z,19.98
2018-08-13T02:51:08.979Z,19.85
2018-08-13T02:52:09.007Z,19.95
2018-08-13T02:53:09.025Z,19.95
2018-08-13T02:54:09.050Z,20.00
2018-08-13T02:55:09.078Z,19.94
2018-08-13T02:56:09.105Z,19.97
2018-08-13T02:57:09.128Z,20.01
2018-08-13T02:58:09.187Z,19.94
2018-08-13T02:59:09.177Z,19.92
2018-08-13T03:00:09.200Z,19.90
2018-08-13T03:01:09.230Z,19.90
2018-08-13T03:02:09.249Z,19.90
2018-08-13T03:03:09.281Z,19.86
2018-08-13T03:04:09.300Z,19.83
2018-08-13T03:05:09.325Z,19.89
2018-08-13T03:06:09.348Z,19.89
2018-08-13T03:07:09.377Z,19.86
2018-08-13T03:08:09.400Z,19.83
2018-08-13T03:09:09.425Z,19.87
2018-08-13T03:10:09.448Z,19.87
2018-08-13T03:11:09.467Z,19.87
2018-08-13T03:12:09.499Z,19.86
2018-08-13T03:13:09.518Z,19.82
2018-08-13T03:14:09.541Z,19.87
2018-08-13T03:15:09.567Z,19.92
2018-08-13T03:16:09.593Z,19.87
2018-08-13T03:17:09.616Z,19.95
2018-08-13T03:18:09.647Z,19.95
2018-08-13T03:19:09.669Z,19.97
2018-08-13T03:20:09.695Z,19.97
2018-08-13T03:21:09.713Z,20.01
2018-08-13T03:22:09.754Z,19.94
2018-08-13T03:23:09.777Z,20.00
2018-08-13T03:24:09.800Z,19.92
2018-08-13T03:25:09.814Z,19.85
2018-08-13T03:26:09.837Z,19.85
2018-08-13T03:27:09.863Z,19.82
2018-08-13T03:28:09.891Z,19.87
2018-08-13T03:29:09.958Z,19.87
2018-08-13T03:30:09.940Z,19.85
2018-08-13T03:31:09.961Z,19.85
2018-08-13T03:32:09.990Z,19.86
2018-08-13T03:33:10.013Z,19.87
2018-08-13T03:34:10.039Z,19.89
2018-08-13T03:35:10.063Z,19.98
2018-08-13T03:36:10.086Z,19.86
2018-08-13T03:37:10.107Z,19.86
2018-08-13T03:38:10.129Z,19.89
2018-08-13T03:39:10.157Z,19.86
2018-08-13T03:40:10.185Z,19.90
2018-08-13T03:41:10.209Z,19.78
2018-08-13T03:42:10.231Z,19.86
2018-08-13T03:43:10.257Z,19.86
2018-08-13T03:44:10.287Z,19.85
2018-08-13T03:45:10.311Z,19.90
2018-08-13T03:46:10.333Z,19.86
2018-08-13T03:47:10.359Z,19.89
2018-08-13T03:48:10.383Z,19.90
2018-08-13T03:49:10.409Z,19.89
2018-08-13T03:50:10.434Z,19.86
2018-08-13T03:51:10.484Z,19.80
2018-08-13T03:52:10.481Z,19.87
2018-08-13T03:53:10.507Z,19.83
2018-08-13T03:54:10.528Z,19.90
2018-08-13T03:55:10.557Z,19.90
2018-08-13T03:56:10.582Z,19.95
2018-08-13T03:57:10.601Z,19.94
2018-08-13T03:58:10.629Z,19.94
2018-08-13T03:59:10.653Z,20.02
2018-08-13T04:00:10.677Z,19.94
2018-08-13T04:01:10.699Z,20.00
2018-08-13T04:02:10.725Z,19.95
2018-08-13T04:03:10.747Z,19.95
2018-08-13T04:04:10.776Z,19.94
2018-08-13T04:05:10.797Z,19.94
2018-08-13T04:06:10.823Z,19.97
2018-08-13T04:07:10.851Z,19.98
2018-08-13T04:08:10.873Z,19.97
2018-08-13T04:09:10.903Z,19.89
2018-08-13T04:10:10.921Z,19.95
2018-08-13T04:11:10.946Z,19.98
2018-08-13T04:12:10.975Z,19.97
2018-08-13T04:13:10.996Z,20.05
2018-08-13T04:14:11.035Z,20.02
2018-08-13T04:15:11.045Z,20.00
2018-08-13T04:16:11.073Z,19.97
2018-08-13T04:17:11.103Z,20.10
2018-08-13T04:18:11.119Z,20.07
2018-08-13T04:19:11.145Z,20.07
2018-08-13T04:20:11.171Z,20.02
2018-08-13T04:21:11.191Z,20.04
2018-08-13T04:22:11.215Z,20.10
2018-08-13T04:23:11.247Z,20.00
2018-08-13T04:24:11.267Z,20.02
2018-08-13T04:25:11.293Z,20.05
2018-08-13T04:26:11.316Z,20.12
2018-08-13T04:27:11.340Z,20.02
2018-08-13T04:28:11.370Z,20.07
2018-08-13T04:29:11.391Z,20.10
2018-08-13T04:30:11.415Z,20.04
2018-08-13T04:31:11.440Z,20.04
2018-08-13T04:32:11.468Z,20.08
2018-08-13T04:33:11.493Z,20.13
2018-08-13T04:34:11.515Z,20.15
2018-08-13T04:35:11.541Z,20.01
2018-08-13T04:36:11.567Z,20.10
2018-08-13T04:37:11.589Z,20.10
2018-08-13T04:38:11.618Z,20.15
2018-08-13T04:39:11.638Z,20.20
2018-08-13T04:40:11.661Z,20.08
2018-08-13T04:41:11.685Z,20.15
2018-08-13T04:42:11.717Z,20.17
2018-08-13T04:43:11.736Z,20.17
2018-08-13T04:44:11.765Z,20.12
2018-08-13T04:45:11.785Z,20.17
2018-08-13T04:46:11.813Z,20.10
2018-08-13T04:47:11.838Z,20.25
2018-08-13T04:48:11.865Z,20.19
2018-08-13T04:49:11.889Z,20.10
2018-08-13T04:50:11.908Z,20.17
2018-08-13T04:51:11.936Z,20.19
2018-08-13T04:52:12.077Z,20.15
2018-08-13T04:53:11.988Z,20.22
2018-08-13T04:54:12.007Z,20.27
2018-08-13T04:55:12.033Z,20.19
2018-08-13T04:56:12.060Z,20.25
2018-08-13T04:57:12.083Z,20.20
2018-08-13T04:58:12.118Z,20.23
2018-08-13T04:59:12.135Z,20.31
2018-08-13T05:00:12.155Z,20.31
2018-08-13T05:01:12.183Z,20.26
2018-08-13T05:02:12.210Z,20.31
2018-08-13T05:03:12.227Z,20.30
2018-08-13T05:04:12.264Z,20.30
2018-08-13T05:05:12.289Z,20.30
2018-08-13T05:06:12.313Z,20.37
2018-08-13T05:07:12.383Z,20.37
2018-08-13T05:08:12.361Z,20.41
2018-08-13T05:09:12.387Z,20.37
2018-08-13T05:10:12.444Z,20.40
2018-08-13T05:11:12.431Z,20.33
2018-08-13T05:12:12.454Z,20.35
2018-08-13T05:13:12.478Z,20.48
2018-08-13T05:14:12.503Z,20.38
2018-08-13T05:15:12.529Z,20.46
2018-08-13T05:16:12.557Z,20.46
2018-08-13T05:17:12.589Z,20.50
2018-08-13T05:18:12.605Z,20.44
2018-08-13T05:19:12.629Z,20.48
2018-08-13T05:20:12.658Z,20.44
2018-08-13T05:21:12.757Z,20.56
2018-08-13T05:22:12.703Z,20.48
2018-08-13T05:23:12.731Z,20.58
2018-08-13T05:24:12.763Z,20.57
2018-08-13T05:25:12.779Z,20.57
2018-08-13T05:26:12.807Z,20.66
2018-08-13T05:27:12.832Z,20.64
2018-08-13T05:28:12.859Z,20.64
2018-08-13T05:29:12.883Z,20.58
2018-08-13T05:30:12.956Z,20.60
2018-08-13T05:31:12.931Z,20.64
2018-08-13T05:32:12.955Z,20.58
2018-08-13T05:33:12.983Z,20.69
2018-08-13T05:34:13.003Z,20.68
2018-08-13T05:35:13.033Z,20.71
2018-08-13T05:36:13.058Z,20.64
2018-08-13T05:37:13.085Z,20.57
2018-08-13T05:38:13.122Z,20.66
2018-08-13T05:39:13.137Z,20.68
2018-08-13T05:40:13.153Z,20.63
2018-08-13T05:41:13.179Z,20.73
2018-08-13T05:42:13.206Z,20.73
2018-08-13T05:43:13.234Z,20.79
2018-08-13T05:44:13.256Z,20.72
2018-08-13T05:45:13.283Z,20.87
2018-08-13T05:46:13.305Z,20.82
2018-08-13T05:47:13.333Z,20.82
2018-08-13T05:48:13.357Z,20.90
2018-08-13T05:49:13.383Z,20.78
2018-08-13T05:50:13.407Z,20.93
2018-08-13T05:51:13.431Z,20.85
2018-08-13T05:52:13.457Z,20.91
2018-08-13T05:53:13.487Z,20.96
2018-08-13T05:54:13.511Z,20.97
2018-08-13T05:55:13.535Z,20.96
2018-08-13T05:56:13.562Z,21.00
2018-08-13T05:57:13.587Z,21.08
2018-08-13T05:58:13.609Z,21.06
2018-08-13T05:59:13.633Z,21.05
2018-08-13T06:00:13.665Z,21.00
2018-08-13T06:01:13.683Z,21.11
2018-08-13T06:02:13.711Z,21.06
2018-08-13T06:03:13.821Z,21.03
2018-08-13T06:04:13.763Z,21.05
2018-08-13T06:05:13.783Z,21.09
2018-08-13T06:06:13.812Z,21.12
2018-08-13T06:07:13.836Z,21.19
2018-08-13T06:08:13.862Z,21.31
2018-08-13T06:09:13.890Z,21.24
2018-08-13T06:10:13.915Z,21.27
2018-08-13T06:11:14.021Z,21.30
2018-08-13T06:12:13.967Z,21.43
2018-08-13T06:13:13.985Z,21.46
2018-08-13T06:14:14.012Z,21.49
2018-08-13T06:15:14.039Z,21.53
2018-08-13T06:16:14.074Z,21.58
2018-08-13T06:17:14.095Z,21.59
2018-08-13T06:18:14.153Z,21.63
2018-08-13T06:19:14.141Z,21.64
2018-08-13T06:20:14.173Z,21.59
2018-08-13T06:21:14.191Z,21.59
2018-08-13T06:22:14.223Z,21.58
2018-08-13T06:23:14.247Z,21.61
2018-08-13T06:24:14.327Z,21.63
2018-08-13T06:25:14.308Z,21.59
2018-08-13T06:26:14.329Z,21.64
2018-08-13T06:27:14.349Z,21.66
2018-08-13T06:28:14.430Z,21.73
2018-08-13T06:29:14.399Z,21.81
2018-08-13T06:30:14.518Z,21.81
2018-08-13T06:31:14.450Z,21.83
2018-08-13T06:32:14.471Z,21.91
2018-08-13T06:33:14.502Z,22.01
2018-08-13T06:34:14.531Z,22.02
2018-08-13T06:35:14.551Z,22.05
2018-08-13T06:36:14.579Z,22.15
2018-08-13T06:37:14.652Z,22.26
2018-08-13T06:38:14.631Z,22.33
2018-08-13T06:39:14.656Z,22.30
2018-08-13T06:40:14.682Z,22.31
2018-08-13T06:41:14.711Z,22.45
2018-08-13T06:42:14.739Z,22.42
2018-08-13T06:43:14.764Z,22.49
2018-08-13T06:44:14.797Z,22.56
2018-08-13T06:45:14.824Z,22.51
2018-08-13T06:46:14.841Z,22.41
2018-08-13T06:47:14.868Z,22.39
2018-08-13T06:48:14.891Z,22.46
2018-08-13T06:49:14.926Z,22.35
2018-08-13T06:50:14.942Z,22.39
2018-08-13T06:51:14.975Z,22.31
2018-08-13T06:52:14.995Z,22.27
2018-08-13T06:53:15.025Z,22.33
2018-08-13T06:54:15.047Z,22.36
2018-08-13T06:55:15.074Z,22.35
2018-08-13T06:56:15.099Z,22.44
2018-08-13T06:57:15.127Z,22.30
2018-08-13T06:58:15.160Z,22.42
2018-08-13T06:59:15.179Z,22.41
2018-08-13T07:00:15.207Z,22.51
2018-08-13T07:01:15.237Z,22.49
2018-08-13T07:02:15.263Z,22.41
2018-08-13T07:03:15.291Z,22.46
2018-08-13T07:04:15.319Z,22.54
2018-08-13T07:05:15.340Z,22.57
2018-08-13T07:06:15.429Z,22.49
2018-08-13T07:07:15.391Z,22.57
2018-08-13T07:08:15.419Z,22.59
2018-08-13T07:09:15.450Z,22.60
2018-08-13T07:10:15.472Z,22.57
2018-08-13T07:11:15.499Z,22.59
2018-08-13T07:12:15.521Z,22.52
2018-08-13T07:13:15.554Z,22.57
2018-08-13T07:14:15.576Z,22.60
2018-08-13T07:15:15.603Z,22.63
2018-08-13T07:16:15.633Z,22.72
2018-08-13T07:17:15.663Z,22.79
2018-08-13T07:18:15.684Z,22.88
2018-08-13T07:19:15.712Z,23.01
2018-08-13T07:20:15.733Z,22.91
2018-08-13T07:21:15.765Z,22.94
2018-08-13T07:22:15.869Z,23.04
2018-08-13T07:23:15.821Z,23.01
2018-08-13T07:24:15.838Z,23.11
2018-08-13T07:25:15.869Z,23.03
2018-08-13T07:26:15.887Z,23.21
2018-08-13T07:27:15.919Z,23.14
2018-08-13T07:28:15.945Z,23.15
2018-08-13T07:29:15.981Z,23.19
2018-08-13T07:30:15.998Z,23.25
2018-08-13T07:31:16.030Z,23.37
2018-08-13T07:32:16.053Z,23.37
2018-08-13T07:33:16.115Z,23.18
2018-08-13T07:34:16.111Z,23.29
2018-08-13T07:35:16.140Z,23.34
2018-08-13T07:36:16.162Z,23.31
2018-08-13T07:37:16.199Z,23.37
2018-08-13T07:38:16.220Z,23.38
2018-08-13T07:39:16.243Z,23.35
2018-08-13T07:40:16.269Z,23.42
2018-08-13T07:41:16.295Z,23.47
2018-08-13T07:42:16.321Z,23.42
2018-08-13T07:43:16.349Z,23.41
2018-08-13T07:44:16.371Z,23.49
2018-08-13T07:45:16.406Z,23.37
2018-08-13T07:46:16.428Z,23.34
2018-08-13T07:47:16.472Z,23.25
2018-08-13T07:48:16.488Z,23.38
2018-08-13T07:49:16.506Z,23.29
2018-08-13T07:50:16.547Z,23.34
2018-08-13T07:51:16.567Z,23.44
2018-08-13T07:52:16.589Z,23.34
2018-08-13T07:53:16.617Z,23.41
2018-08-13T07:54:16.652Z,23.41
2018-08-13T07:55:16.670Z,23.49
2018-08-13T07:56:16.697Z,23.56
2018-08-13T07:57:16.724Z,23.54
2018-08-13T07:58:16.751Z,23.56
2018-08-13T07:59:16.774Z,23.57
2018-08-13T08:00:16.800Z,23.54
2018-08-13T08:01:16.839Z,23.57
2018-08-13T08:02:16.861Z,23.57
2018-08-13T08:03:16.888Z,23.67
2018-08-13T08:04:16.918Z,23.74
2018-08-13T08:05:16.934Z,23.79
2018-08-13T08:06:16.964Z,23.81
2018-08-13T08:07:17.001Z,23.81
2018-08-13T08:08:17.023Z,23.90
2018-08-13T08:09:17.126Z,23.92
2018-08-13T08:10:17.082Z,23.87
2018-08-13T08:11:17.100Z,23.75
2018-08-13T08:12:17.124Z,23.92
2018-08-13T08:13:17.162Z,23.75
2018-08-13T08:14:17.183Z,23.77
2018-08-13T08:15:17.208Z,23.78
2018-08-13T08:16:17.236Z,23.89
2018-08-13T08:17:17.261Z,24.05
2018-08-13T08:18:17.292Z,23.99
2018-08-13T08:19:17.318Z,23.96
2018-08-13T08:20:17.356Z,24.05
2018-08-13T08:21:17.389Z,24.09
2018-08-13T08:22:17.398Z,24.05
2018-08-13T08:23:17.421Z,23.96
2018-08-13T08:24:17.453Z,23.93
2018-08-13T08:25:17.491Z,23.99
2018-08-13T08:26:17.508Z,23.94
2018-08-13T08:27:17.541Z,23.99
2018-08-13T08:28:17.565Z,23.96
2018-08-13T08:29:17.664Z,24.16
2018-08-13T08:30:17.618Z,24.05
2018-08-13T08:31:17.644Z,24.12
2018-08-13T08:32:17.671Z,24.09
2018-08-13T08:33:17.701Z,24.05
2018-08-13T08:34:17.727Z,24.08
2018-08-13T08:35:17.752Z,24.18
2018-08-13T08:36:17.782Z,24.21
2018-08-13T08:37:17.808Z,24.18
2018-08-13T08:38:17.833Z,24.16
2018-08-13T08:39:17.860Z,24.24
2018-08-13T08:40:17.893Z,24.23
2018-08-13T08:41:17.915Z,24.26
2018-08-13T08:42:17.943Z,24.24
2018-08-13T08:43:17.974Z,24.24
2018-08-13T08:44:17.996Z,24.24
2018-08-13T08:45:18.023Z,24.31
2018-08-13T08:46:18.049Z,24.24
2018-08-13T08:47:18.078Z,24.31
2018-08-13T08:48:18.106Z,24.37
2018-08-13T08:49:18.136Z,24.36
2018-08-13T08:50:18.157Z,24.45
2018-08-13T08:51:18.184Z,24.48
2018-08-13T08:52:18.220Z,24.59
2018-08-13T08:53:18.239Z,24.64
2018-08-13T08:54:18.270Z,24.79
2018-08-13T08:55:18.300Z,24.80
2018-08-13T08:56:18.318Z,24.87
2018-08-13T08:57:18.354Z,24.87
2018-08-13T08:58:18.382Z,25.05
2018-08-13T08:59:18.406Z,25.19
2018-08-13T09:00:18.432Z,25.24
2018-08-13T09:01:18.463Z,25.34
2018-08-13T09:02:18.489Z,25.53
2018-08-13T09:03:18.518Z,25.64
2018-08-13T09:04:18.548Z,25.67
2018-08-13T09:05:18.571Z,25.78
2018-08-13T09:06:18.603Z,25.93
2018-08-13T09:07:18.626Z,25.86
2018-08-13T09:08:18.661Z,26.09
2018-08-13T09:09:18.682Z,26.16
2018-08-13T09:10:18.732Z,26.23
2018-08-13T09:11:18.738Z,26.32
2018-08-13T09:12:18.770Z,26.39
2018-08-13T09:13:18.796Z,26.54
2018-08-13T09:14:18.913Z,26.75
2018-08-13T09:15:18.847Z,26.79
2018-08-13T09:16:18.877Z,26.97
2018-08-13T09:17:18.907Z,27.03
2018-08-13T09:18:18.936Z,27.11
2018-08-13T09:19:18.967Z,27.13
2018-08-13T09:20:18.991Z,27.28
2018-08-13T09:21:19.021Z,27.24
2018-08-13T09:22:19.050Z,27.45
2018-08-13T09:23:19.079Z,27.49
2018-08-13T09:24:19.105Z,27.58
2018-08-13T09:25:19.133Z,27.61
2018-08-13T09:26:19.164Z,27.62
2018-08-13T09:27:19.195Z,27.50
2018-08-13T09:28:19.221Z,27.58
2018-08-13T09:29:19.252Z,27.61
2018-08-13T09:30:19.277Z,27.55
2018-08-13T09:31:19.314Z,27.50
2018-08-13T09:32:19.334Z,27.55
2018-08-13T09:33:19.369Z,27.55
2018-08-13T09:34:19.400Z,27.65
2018-08-13T09:35:19.426Z,27.52
2018-08-13T09:36:19.453Z,27.49
2018-08-13T09:37:19.494Z,27.50
2018-08-13T09:38:19.511Z,27.78
2018-08-13T09:39:19.540Z,27.86
2018-08-13T09:40:19.567Z,28.02
2018-08-13T09:41:19.605Z,28.18
2018-08-13T09:42:19.631Z,28.32
2018-08-13T09:43:19.666Z,28.33
2018-08-13T09:44:19.695Z,28.27
2018-08-13T09:45:19.713Z,28.21
2018-08-13T09:46:19.741Z,28.30
2018-08-13T09:47:19.774Z,28.38
2018-08-13T09:48:19.805Z,28.43
2018-08-13T09:49:19.843Z,28.48
2018-08-13T09:50:19.868Z,28.48
2018-08-13T09:51:19.898Z,28.23
2018-08-13T09:52:19.931Z,28.48
2018-08-13T09:53:19.956Z,28.27
2018-08-13T09:54:20.008Z,28.20
2018-08-13T09:55:20.027Z,28.30
2018-08-13T09:56:20.048Z,28.36
2018-08-13T09:57:20.078Z,28.27
2018-08-13T09:58:20.108Z,28.54
2018-08-13T09:59:20.143Z,28.82
2018-08-13T10:00:20.235Z,28.82
2018-08-13T10:01:20.192Z,28.88
2018-08-13T10:02:20.226Z,29.02
2018-08-13T10:03:20.254Z,29.17
2018-08-13T10:04:20.285Z,29.20
2018-08-13T10:05:20.328Z,29.18
2018-08-13T10:06:20.346Z,29.25
2018-08-13T10:07:20.378Z,29.25
2018-08-13T10:08:20.407Z,29.39
2018-08-13T10:09:20.472Z,29.37
2018-08-13T10:10:20.463Z,29.29
2018-08-13T10:11:20.497Z,29.30
2018-08-13T10:12:20.524Z,29.29
2018-08-13T10:13:20.556Z,29.12
2018-08-13T10:14:20.594Z,29.15
2018-08-13T10:15:20.612Z,29.11
2018-08-13T10:16:20.647Z,28.97
2018-08-13T10:17:20.679Z,29.07
2018-08-13T10:18:20.711Z,29.05
2018-08-13T10:19:20.746Z,29.11
2018-08-13T10:20:20.771Z,29.18
2018-08-13T10:21:20.804Z,29.11
2018-08-13T10:22:20.832Z,28.91
2018-08-13T10:23:20.863Z,28.94
2018-08-13T10:24:20.901Z,29.10
2018-08-13T10:25:20.916Z,29.14
2018-08-13T10:26:20.950Z,29.20
2018-08-13T10:27:20.976Z,29.37
2018-08-13T10:28:21.018Z,29.49
2018-08-13T10:29:21.043Z,29.52
2018-08-13T10:30:21.074Z,29.60
2018-08-13T10:31:21.106Z,29.47
2018-08-13T10:32:21.136Z,29.44
2018-08-13T10:33:21.164Z,29.41
2018-08-13T10:34:21.194Z,29.62
2018-08-13T10:35:21.224Z,29.62
2018-08-13T10:36:21.254Z,29.86
2018-08-13T10:37:21.324Z,29.99
2018-08-13T10:38:21.316Z,30.03
2018-08-13T10:39:21.346Z,29.92
2018-08-13T10:40:21.387Z,30.01
2018-08-13T10:41:21.408Z,29.99
2018-08-13T10:42:21.437Z,30.06
2018-08-13T10:43:21.499Z,29.95
2018-08-13T10:44:21.506Z,29.86
2018-08-13T10:45:21.524Z,30.03
2018-08-13T10:46:21.556Z,30.08
2018-08-13T10:47:21.592Z,30.18
2018-08-13T10:48:21.674Z,30.25
2018-08-13T10:49:21.654Z,30.36
2018-08-13T10:50:21.686Z,30.44
2018-08-13T10:51:21.716Z,30.45
2018-08-13T10:52:21.746Z,30.57
2018-08-13T10:53:21.785Z,30.66
2018-08-13T10:54:21.808Z,30.78
2018-08-13T10:55:21.840Z,30.76
2018-08-13T10:56:21.873Z,30.73
2018-08-13T10:57:21.896Z,30.90
2018-08-13T10:58:21.938Z,30.86
2018-08-13T10:59:21.965Z,30.85
2018-08-13T11:00:21.989Z,30.86
2018-08-13T11:01:22.044Z,30.76
2018-08-13T11:02:22.059Z,30.81
2018-08-13T11:03:22.094Z,30.51
2018-08-13T11:04:22.121Z,30.40
2018-08-13T11:05:22.152Z,30.21
2018-08-13T11:06:22.188Z,30.21
2018-08-13T11:07:22.218Z,30.22
2018-08-13T11:08:22.252Z,30.19
2018-08-13T11:09:22.279Z,30.28
2018-08-13T11:10:22.401Z,30.38
2018-08-13T11:11:22.340Z,30.28
2018-08-13T11:12:22.376Z,30.18
2018-08-13T11:13:22.455Z,29.99
2018-08-13T11:14:22.432Z,30.06
2018-08-13T11:15:22.462Z,29.94
2018-08-13T11:16:22.496Z,30.01
2018-08-13T11:17:22.540Z,29.70
2018-08-13T11:18:22.563Z,29.86
2018-08-13T11:19:22.593Z,29.86
2018-08-13T11:20:22.618Z,29.95
2018-08-13T11:21:22.648Z,29.94
2018-08-13T11:22:22.686Z,29.99
2018-08-13T11:23:22.713Z,29.89
2018-08-13T11:24:22.745Z,29.70
2018-08-13T11:25:22.834Z,29.55
2018-08-13T11:26:22.810Z,29.60
2018-08-13T11:27:22.835Z,29.64
2018-08-13T11:28:22.871Z,29.88
2018-08-13T11:29:22.898Z,29.95
2018-08-13T11:30:22.932Z,29.89
2018-08-13T11:31:22.960Z,30.00
2018-08-13T11:32:22.993Z,30.03
2018-08-13T11:33:23.019Z,30.15
2018-08-13T11:34:23.061Z,30.00
2018-08-13T11:35:23.083Z,29.95
2018-08-13T11:36:23.124Z,29.79
2018-08-13T11:37:23.158Z,29.91
2018-08-13T11:38:23.177Z,29.95
2018-08-13T11:39:23.206Z,29.89
2018-08-13T11:40:23.237Z,30.01
2018-08-13T11:41:23.298Z,29.91
2018-08-13T11:42:23.314Z,29.89
2018-08-13T11:43:23.329Z,29.79
2018-08-13T11:44:23.355Z,29.69
2018-08-13T11:45:23.392Z,29.54
2018-08-13T11:46:23.467Z,29.39
2018-08-13T11:47:23.453Z,29.37
2018-08-13T11:48:23.479Z,29.36
2018-08-13T11:49:23.511Z,29.26
2018-08-13T11:50:23.543Z,29.42
2018-08-13T11:51:23.571Z,29.48
2018-08-13T11:52:23.605Z,29.58
2018-08-13T11:53:23.635Z,29.66
2018-08-13T11:54:23.717Z,29.55
2018-08-13T11:55:23.691Z,29.41
2018-08-13T11:56:23.779Z,29.26
2018-08-13T11:57:23.759Z,29.18
2018-08-13T11:58:23.791Z,29.08
2018-08-13T11:59:23.812Z,29.14
2018-08-13T12:00:23.842Z,29.23
2018-08-13T12:01:23.870Z,28.83
2018-08-13T12:02:23.901Z,28.79
2018-08-13T12:03:23.937Z,28.60
2018-08-13T12:04:23.973Z,28.57
2018-08-13T12:05:24.091Z,28.45
2018-08-13T12:06:24.020Z,28.40
2018-08-13T12:07:24.051Z,28.35
2018-08-13T12:08:24.113Z,28.24
2018-08-13T12:09:24.117Z,28.24
2018-08-13T12:10:24.143Z,28.05
2018-08-13T12:11:24.176Z,28.02
2018-08-13T12:12:24.205Z,27.84
2018-08-13T12:13:24.235Z,27.95
2018-08-13T12:14:24.261Z,27.87
2018-08-13T12:15:25.100Z,27.87
2018-08-13T12:16:24.318Z,27.86
2018-08-13T12:17:24.352Z,27.78
2018-08-13T12:18:24.378Z,27.83
2018-08-13T12:19:24.408Z,27.76
2018-08-13T12:20:24.441Z,27.66
2018-08-13T12:21:24.467Z,27.65
2018-08-13T12:22:24.500Z,27.61
2018-08-13T12:23:24.520Z,27.63
2018-08-13T12:24:24.550Z,27.52
2018-08-13T12:25:24.579Z,27.61
2018-08-13T12:26:24.637Z,27.49
2018-08-13T12:27:24.638Z,27.48
2018-08-13T12:28:24.668Z,27.33
2018-08-13T12:29:24.698Z,27.33
2018-08-13T12:30:24.724Z,27.16
2018-08-13T12:31:24.760Z,27.24
2018-08-13T12:32:24.786Z,27.25
2018-08-13T12:33:24.806Z,27.21
2018-08-13T12:34:24.836Z,27.16
2018-08-13T12:35:24.870Z,27.09
2018-08-13T12:36:24.894Z,27.16
2018-08-13T12:37:24.926Z,27.08
2018-08-13T12:38:24.954Z,27.03
2018-08-13T12:39:24.983Z,27.03
2018-08-13T12:40:25.015Z,26.94
2018-08-13T12:41:25.039Z,27.09
2018-08-13T12:42:25.068Z,27.02
2018-08-13T12:43:25.097Z,27.01
2018-08-13T12:44:25.126Z,27.01
2018-08-13T12:45:25.156Z,26.96
2018-08-13T12:46:25.182Z,26.86
2018-08-13T12:47:25.202Z,26.90
2018-08-13T12:48:25.239Z,26.78
2018-08-13T12:49:25.265Z,26.73
2018-08-13T12:50:25.295Z,26.72
2018-08-13T12:51:25.323Z,26.66
2018-08-13T12:52:25.349Z,26.69